Lloret de Mar, Spain
Current Conditions -  °F | °C
As of 5:00 PM on Saturday 25 Oct 2014 (Local Time) from LEGE Reporting Station
Few Clouds Few Clouds  
Wind Chill: 75°   Ceiling: Unl
Heat Index: 75°   Visibility: 6mi
Dew Point: 55°   Wind: 7mph
Humidity: 50%   Direction: 200°SSW
Pressure: 30.09"   Gusts: NA
Location:  41.7°N, 2.85°E
Report Text: LEGE 251500Z 20006KT 170V230 9999 FEW040 24/13 Q1019
Loading
Personal Weather Stations






























Interactive Weather Map
Tropical Storm Tracking
New forecast layout! Learn more

10-Day Weather Forecast

Advertisements
Track Severe Weather on mobile